Wilsonville, Alabama
Current Conditions -  °F | °C
As of 12:15 PM on Thursday 29 Jan 2015 (Local Time) from KSCD Reporting Station
Clear Clear  
Wind Chill: 58°   Ceiling: Unl
Heat Index: 58°   Visibility: 10mi
Dew Point: 38°   Wind: 14mph
Humidity: 46%   Direction: 210°SSW
Pressure: 30.2"   Gusts: 20mph
Location:  33.23°N, 86.48°W
Report Text: KSCD 291815Z AUTO 21012G17KT 10SM CLR 15/03 A3020 RMK AO2 T01470031
Loading
Personal Weather Stations






























Interactive Weather Map New forecast layout! Learn more

10-Day Weather Forecast

Advertisements
Track Severe Weather on mobile